首页
METAR-TAF:

METAR-TAF

机场 :

杰克逊, 怀俄明州, 美国

纬度: 43-36N, 经度: 110-44W, 海拔: 1964米

当前天气观测

该预报发布于15分钟前的15:56 UTC
静风
温度 -18°C
湿度 84%
气压 1011 hPa
能見度: 16.1公里
阴天层高于1500英尺
轻雾

METAR: KJAC 151556Z 00000KT 10SM BR OVC015 M18/M20 A2986 RMK AO2 SNE19 SLP220 P0000 T11781200

时间: 09:11 (16:11 UTC)

预报

该预报发布于3分钟前的16:08 UTC
预报有效从15日的 16点(UTC)到 16日的 12点(UTC)
风速4节,风向多变
能見度: 10公里
多云层高于1500英尺
从 15日的 2000点(UTC)
风速5节,风向多变
能見度: 10公里
散云层高于1500英尺
多云层高于5000英尺
附近有阵雨
从 16日的 0100点(UTC)
风速5节,风向多变
能見度: 10公里
散云层高于5000英尺

TAF: KJAC 151608Z 1516/1612 VRB04KT P6SM BKN015 FM152000 VRB05KT P6SM VCSH SCT015 BKN050 FM160100 VRB05KT P6SM SCT050 AMD LTD TO CLD VIS AND WIND

超过4000个机场的气象观测和天气预报(METAR&TAF报告)。

可查询的气象台以黄色和红色小点在地图上表示。

将鼠标移到小点上方,可查看气象台名称。

然后点击查看天气观测和预报。

如需切换地图:点击带黑十字的绿色按钮放大地图;点击带横线的绿色按钮缩小地图;或者点击绿色箭头查看邻近地区的地图。


METAR-TAF: